Shin Mei Maru — JG5617 — position and weather

sailwx.info

Track history (hours):
 
Tides and Currents Weather Stations Pressure Air Temp Water Temp Dewpoint Dewpoint Depression Visibility Wind Speed Wind Dir Waves Ship Positions

Shin Mei Maru

Last reported at 2017-Jun-23 12:19 UTC. Time now 2017-Jun-24 12:17 UTC.
Position N 33°53' E 134°57'.

Length 160 m; draft 6.7 m.

Type: Cargo ship. MMSI: 431100922.

Date/timePositionNaut miles runAvg speedWind from/ knotsBaromVisibWave heightAir tempDewpointWater temp
2017-Jun-23 12:19N 33°53' E 134°57'717.9
2017-Jun-23 11:57N 33°60' E 134°57'817.9
2017-Jun-23 11:30N 34°07' E 134°57'917.3
2017-Jun-23 11:00N 34°16' E 134°58'714.1
2017-Jun-23 10:30N 34°23' E 135°02'5 9.8
2017-Jun-23 10:00N 34°24' E 135°07'0 0.0
2017-Jun-23 08:01N 34°24' E 135°07'0 0.0
2017-Jun-23 07:43N 34°24' E 135°07'0 0.0
2017-Jun-23 07:19N 34°24' E 135°07'0 0.0
2017-Jun-23 06:55N 34°24' E 135°07'0 0.1
2017-Jun-23 06:25N 34°24' E 135°07'0 0.0
2017-Jun-23 05:55N 34°24' E 135°07'0 0.0
2017-Jun-23 04:43N 34°24' E 135°07'0 0.0
2017-Jun-23 03:19N 34°24' E 135°07'0 0.2
2017-Jun-23 02:53N 34°24' E 135°07'512.9
2017-Jun-23 02:30N 34°28' E 135°10'816.7
2017-Jun-23 02:00N 34°35' E 135°17'713.4
2017-Jun-23 01:30N 34°37' E 135°25'0 0.1
2017-Jun-23 00:19N 34°37' E 135°25'0 0.0
2017-Jun-22 23:13N 34°37' E 135°25'0 0.0
2017-Jun-22 22:55N 34°37' E 135°25'0 0.0
2017-Jun-22 22:19N 34°37' E 135°25'0 0.0
2017-Jun-22 21:55N 34°37' E 135°25'0 0.1
2017-Jun-22 21:30N 34°37' E 135°25'3 6.8
2017-Jun-22 21:00N 34°36' E 135°21'816.7
2017-Jun-22 20:30N 34°31' E 135°13'917.6
2017-Jun-22 20:00N 34°25' E 135°05'917.8
2017-Jun-22 19:30N 34°17' E 134°59'714.8
2017-Jun-22 19:00N 34°10' E 134°60'918.3
2017-Jun-22 18:31N 34°01' E 134°59'23612.7
2017-Jun-21 23:55N 35°02' E 139°36'717.7
2017-Jun-21 23:31N 35°07' E 139°43'815.9
2017-Jun-21 23:01N 35°14' E 139°46'611.8
2017-Jun-21 22:31N 35°19' E 139°43'714.1
2017-Jun-21 22:00N 35°26' E 139°45'714.5
2017-Jun-21 21:30N 35°30' E 139°53'1 1.5
2017-Jun-21 21:00N 35°31' E 139°54'0 0.0
2017-Jun-21 20:29N 35°31' E 139°54'0 0.1
2017-Jun-21 19:59N 35°31' E 139°54'0 0.1
2017-Jun-21 19:29N 35°31' E 139°54'0 0.1
2017-Jun-21 18:59N 35°31' E 139°54'0 0.0
2017-Jun-21 18:29N 35°31' E 139°54'0 0.0
2017-Jun-21 17:59N 35°31' E 139°54'0 0.0
2017-Jun-21 17:28N 35°31' E 139°54'0 0.0
2017-Jun-21 16:59N 35°31' E 139°54'0 0.0
2017-Jun-21 16:28N 35°31' E 139°54'0 0.0
2017-Jun-21 16:00N 35°31' E 139°54'0 0.0
2017-Jun-21 15:31N 35°31' E 139°54'0 0.0
2017-Jun-21 15:01N 35°31' E 139°54'0 0.0
2017-Jun-21 14:00N 35°31' E 139°54'0 0.0
2017-Jun-21 13:30N 35°31' E 139°54'0 0.1
2017-Jun-21 13:00N 35°31' E 139°54'0 0.1
2017-Jun-21 12:29N 35°31' E 139°54'0 0.0
2017-Jun-21 11:59N 35°31' E 139°54'0 0.1
2017-Jun-21 11:27N 35°31' E 139°54'0 0.0
2017-Jun-21 10:58N 35°31' E 139°54'0 0.0
2017-Jun-21 10:30N 35°31' E 139°54'0 0.1
2017-Jun-21 10:00N 35°31' E 139°54'0 0.0
2017-Jun-21 09:30N 35°31' E 139°54'0 0.7
2017-Jun-21 09:00N 35°31' E 139°53'5 9.6
2017-Jun-21 08:31N 35°34' E 139°49'5 9.1
2017-Jun-21 08:00N 35°38' E 139°46'0 0.0
2017-Jun-21 07:31N 35°38' E 139°46'0 0.0
2017-Jun-21 07:01N 35°38' E 139°46'0 0.0
2017-Jun-21 06:31N 35°38' E 139°46'0 0.0
2017-Jun-21 05:57N 35°38' E 139°46'0 0.0
2017-Jun-21 05:27N 35°38' E 139°46'0 0.0
2017-Jun-21 05:00N 35°38' E 139°46'0 0.0
2017-Jun-21 04:30N 35°38' E 139°46'0 0.0
2017-Jun-21 04:00N 35°38' E 139°46'0 0.0
2017-Jun-21 03:27N 35°38' E 139°46'0 0.0
2017-Jun-21 03:00N 35°38' E 139°46'0 0.0
2017-Jun-21 02:30N 35°38' E 139°46'0 0.0
2017-Jun-21 02:00N 35°38' E 139°46'0 0.0
2017-Jun-21 01:30N 35°38' E 139°46'0 0.0
2017-Jun-21 01:00N 35°38' E 139°46'0 0.0
2017-Jun-21 00:30N 35°38' E 139°46'0 0.0
2017-Jun-21 00:00N 35°38' E 139°46'0 0.0
2017-Jun-20 23:30N 35°38' E 139°46'0 0.0
2017-Jun-20 22:57N 35°38' E 139°46'0 0.0
2017-Jun-20 22:30N 35°38' E 139°46'0 0.1
2017-Jun-20 22:00N 35°38' E 139°46'2 3.4
2017-Jun-20 21:30N 35°36' E 139°47'714.8
2017-Jun-20 21:00N 35°31' E 139°52'815.6
2017-Jun-20 20:30N 35°24' E 139°46'611.9
2017-Jun-20 20:00N 35°19' E 139°44'611.4
2017-Jun-20 19:30N 35°13' E 139°47'713.1
2017-Jun-20 18:59N 35°07' E 139°47'2010.0
2017-Jun-20 16:58N 34°57' E 140°09'  
2017-Jun-15 11:34N 33°58' E 134°57'117.9
2017-Jun-15 11:30N 33°60' E 134°57'918.7
2017-Jun-15 11:01N 34°09' E 134°56'917.9
2017-Jun-15 10:30N 34°18' E 134°59'714.7
2017-Jun-15 10:00N 34°24' E 135°03'918.0
2017-Jun-15 09:30N 34°30' E 135°11'816.8
2017-Jun-15 09:00N 34°36' E 135°18'611.3
2017-Jun-15 08:30N 34°37' E 135°25'0 0.2
2017-Jun-15 08:00N 34°37' E 135°25'0 0.0
2017-Jun-15 05:14N 34°37' E 135°25'0 0.0
2017-Jun-15 04:44N 34°37' E 135°25'0 0.0
2017-Jun-15 02:08N 34°37' E 135°25'0 0.0
2017-Jun-15 01:44N 34°37' E 135°25'0 0.0
2017-Jun-15 01:26N 34°37' E 135°25'0 0.2
2017-Jun-15 01:00N 34°37' E 135°25'5 9.0
2017-Jun-15 00:30N 34°35' E 135°20'611.1
2017-Jun-15 00:00N 34°31' E 135°15'917.3
2017-Jun-14 23:30N 34°25' E 135°07'1117.1
2017-Jun-14 22:53N 34°17' E 134°59'616.8
2017-Jun-14 22:30N 34°10' E 134°59'1017.8
2017-Jun-14 21:55N 34°00' E 134°59'23815.5
2017-Jun-14 06:38N 35°03' E 139°37'320.6
2017-Jun-14 06:30N 35°05' E 139°40'919.0
2017-Jun-14 06:00N 35°13' E 139°46'612.1
2017-Jun-14 05:31N 35°18' E 139°43'713.9
2017-Jun-14 05:00N 35°25' E 139°45'917.2
2017-Jun-14 04:30N 35°32' E 139°51'713.2
2017-Jun-14 04:00N 35°38' E 139°46'0 0.4
2017-Jun-14 03:30N 35°38' E 139°46'0 0.0
2017-Jun-14 03:00N 35°38' E 139°46'0 0.0
2017-Jun-14 02:30N 35°38' E 139°46'0 0.0
2017-Jun-14 02:00N 35°38' E 139°46'0 0.0
2017-Jun-14 01:30N 35°38' E 139°46'0 0.0
2017-Jun-14 01:00N 35°38' E 139°46'0 0.0
2017-Jun-14 00:30N 35°38' E 139°46'0 0.0
2017-Jun-14 00:00N 35°38' E 139°46'0 0.0
2017-Jun-13 23:27N 35°38' E 139°46'0 0.0
2017-Jun-13 23:00N 35°38' E 139°46'0 0.0
2017-Jun-13 22:30N 35°38' E 139°46'0 0.0
2017-Jun-13 22:00N 35°38' E 139°46'2 4.9
2017-Jun-13 21:30N 35°36' E 139°47'714.5
2017-Jun-13 21:00N 35°30' E 139°52'816.0
2017-Jun-13 20:30N 35°23' E 139°46'510.5
2017-Jun-13 20:00N 35°18' E 139°44'  
Track history (hours):
 
Tides and Currents Weather Stations Pressure Air Temp Water Temp Dewpoint Dewpoint Depression Visibility Wind Speed Wind Dir Waves Ship Positions

Shin Mei Maru

Last reported at 2017-Jun-23 12:19 UTC. Time now 2017-Jun-24 12:17 UTC.
Position N 33°53' E 134°57'.

Length 160 m; draft 6.7 m.

Type: Cargo ship. MMSI: 431100922.

Date/timePositionNaut miles runAvg speedWind from/ knotsBaromVisibWave heightAir tempDewpointWater temp
2017-Jun-23 12:19N 33°53' E 134°57'717.9
2017-Jun-23 11:57N 33°60' E 134°57'817.9
2017-Jun-23 11:30N 34°07' E 134°57'917.3
2017-Jun-23 11:00N 34°16' E 134°58'714.1
2017-Jun-23 10:30N 34°23' E 135°02'5 9.8
2017-Jun-23 10:00N 34°24' E 135°07'0 0.0
2017-Jun-23 08:01N 34°24' E 135°07'0 0.0
2017-Jun-23 07:43N 34°24' E 135°07'0 0.0
2017-Jun-23 07:19N 34°24' E 135°07'0 0.0
2017-Jun-23 06:55N 34°24' E 135°07'0 0.1
2017-Jun-23 06:25N 34°24' E 135°07'0 0.0
2017-Jun-23 05:55N 34°24' E 135°07'0 0.0
2017-Jun-23 04:43N 34°24' E 135°07'0 0.0
2017-Jun-23 03:19N 34°24' E 135°07'0 0.2
2017-Jun-23 02:53N 34°24' E 135°07'512.9
2017-Jun-23 02:30N 34°28' E 135°10'816.7
2017-Jun-23 02:00N 34°35' E 135°17'713.4
2017-Jun-23 01:30N 34°37' E 135°25'0 0.1
2017-Jun-23 00:19N 34°37' E 135°25'0 0.0
2017-Jun-22 23:13N 34°37' E 135°25'0 0.0
2017-Jun-22 22:55N 34°37' E 135°25'0 0.0
2017-Jun-22 22:19N 34°37' E 135°25'0 0.0
2017-Jun-22 21:55N 34°37' E 135°25'0 0.1
2017-Jun-22 21:30N 34°37' E 135°25'3 6.8
2017-Jun-22 21:00N 34°36' E 135°21'816.7
2017-Jun-22 20:30N 34°31' E 135°13'917.6
2017-Jun-22 20:00N 34°25' E 135°05'917.8
2017-Jun-22 19:30N 34°17' E 134°59'714.8
2017-Jun-22 19:00N 34°10' E 134°60'918.3
2017-Jun-22 18:31N 34°01' E 134°59'23612.7
2017-Jun-21 23:55N 35°02' E 139°36'717.7
2017-Jun-21 23:31N 35°07' E 139°43'815.9
2017-Jun-21 23:01N 35°14' E 139°46'611.8
2017-Jun-21 22:31N 35°19' E 139°43'714.1
2017-Jun-21 22:00N 35°26' E 139°45'714.5
2017-Jun-21 21:30N 35°30' E 139°53'1 1.5
2017-Jun-21 21:00N 35°31' E 139°54'0 0.0
2017-Jun-21 20:29N 35°31' E 139°54'0 0.1
2017-Jun-21 19:59N 35°31' E 139°54'0 0.1
2017-Jun-21 19:29N 35°31' E 139°54'0 0.1
2017-Jun-21 18:59N 35°31' E 139°54'0 0.0
2017-Jun-21 18:29N 35°31' E 139°54'0 0.0
2017-Jun-21 17:59N 35°31' E 139°54'0 0.0
2017-Jun-21 17:28N 35°31' E 139°54'0 0.0
2017-Jun-21 16:59N 35°31' E 139°54'0 0.0
2017-Jun-21 16:28N 35°31' E 139°54'0 0.0
2017-Jun-21 16:00N 35°31' E 139°54'0 0.0
2017-Jun-21 15:31N 35°31' E 139°54'0 0.0
2017-Jun-21 15:01N 35°31' E 139°54'0 0.0
2017-Jun-21 14:00N 35°31' E 139°54'0 0.0
2017-Jun-21 13:30N 35°31' E 139°54'0 0.1
2017-Jun-21 13:00N 35°31' E 139°54'0 0.1
2017-Jun-21 12:29N 35°31' E 139°54'0 0.0
2017-Jun-21 11:59N 35°31' E 139°54'0 0.1
2017-Jun-21 11:27N 35°31' E 139°54'0 0.0
2017-Jun-21 10:58N 35°31' E 139°54'0 0.0
2017-Jun-21 10:30N 35°31' E 139°54'0 0.1
2017-Jun-21 10:00N 35°31' E 139°54'0 0.0
2017-Jun-21 09:30N 35°31' E 139°54'0 0.7
2017-Jun-21 09:00N 35°31' E 139°53'5 9.6
2017-Jun-21 08:31N 35°34' E 139°49'5 9.1
2017-Jun-21 08:00N 35°38' E 139°46'0 0.0
2017-Jun-21 07:31N 35°38' E 139°46'0 0.0
2017-Jun-21 07:01N 35°38' E 139°46'0 0.0
2017-Jun-21 06:31N 35°38' E 139°46'0 0.0
2017-Jun-21 05:57N 35°38' E 139°46'0 0.0
2017-Jun-21 05:27N 35°38' E 139°46'0 0.0
2017-Jun-21 05:00N 35°38' E 139°46'0 0.0
2017-Jun-21 04:30N 35°38' E 139°46'0 0.0
2017-Jun-21 04:00N 35°38' E 139°46'0 0.0
2017-Jun-21 03:27N 35°38' E 139°46'0 0.0
2017-Jun-21 03:00N 35°38' E 139°46'0 0.0
2017-Jun-21 02:30N 35°38' E 139°46'0 0.0
2017-Jun-21 02:00N 35°38' E 139°46'0 0.0
2017-Jun-21 01:30N 35°38' E 139°46'0 0.0
2017-Jun-21 01:00N 35°38' E 139°46'0 0.0
2017-Jun-21 00:30N 35°38' E 139°46'0 0.0
2017-Jun-21 00:00N 35°38' E 139°46'0 0.0
2017-Jun-20 23:30N 35°38' E 139°46'0 0.0
2017-Jun-20 22:57N 35°38' E 139°46'0 0.0
2017-Jun-20 22:30N 35°38' E 139°46'0 0.1
2017-Jun-20 22:00N 35°38' E 139°46'2 3.4
2017-Jun-20 21:30N 35°36' E 139°47'714.8
2017-Jun-20 21:00N 35°31' E 139°52'815.6
2017-Jun-20 20:30N 35°24' E 139°46'611.9
2017-Jun-20 20:00N 35°19' E 139°44'611.4
2017-Jun-20 19:30N 35°13' E 139°47'713.1
2017-Jun-20 18:59N 35°07' E 139°47'2010.0
2017-Jun-20 16:58N 34°57' E 140°09'  
2017-Jun-15 11:34N 33°58' E 134°57'117.9
2017-Jun-15 11:30N 33°60' E 134°57'918.7
2017-Jun-15 11:01N 34°09' E 134°56'917.9
2017-Jun-15 10:30N 34°18' E 134°59'714.7
2017-Jun-15 10:00N 34°24' E 135°03'918.0
2017-Jun-15 09:30N 34°30' E 135°11'816.8
2017-Jun-15 09:00N 34°36' E 135°18'611.3
2017-Jun-15 08:30N 34°37' E 135°25'0 0.2
2017-Jun-15 08:00N 34°37' E 135°25'0 0.0
2017-Jun-15 05:14N 34°37' E 135°25'0 0.0
2017-Jun-15 04:44N 34°37' E 135°25'0 0.0
2017-Jun-15 02:08N 34°37' E 135°25'0 0.0
2017-Jun-15 01:44N 34°37' E 135°25'0 0.0
2017-Jun-15 01:26N 34°37' E 135°25'0 0.2
2017-Jun-15 01:00N 34°37' E 135°25'5 9.0
2017-Jun-15 00:30N 34°35' E 135°20'611.1
2017-Jun-15 00:00N 34°31' E 135°15'917.3
2017-Jun-14 23:30N 34°25' E 135°07'1117.1
2017-Jun-14 22:53N 34°17' E 134°59'616.8
2017-Jun-14 22:30N 34°10' E 134°59'1017.8
2017-Jun-14 21:55N 34°00' E 134°59'23815.5
2017-Jun-14 06:38N 35°03' E 139°37'320.6
2017-Jun-14 06:30N 35°05' E 139°40'919.0
2017-Jun-14 06:00N 35°13' E 139°46'612.1
2017-Jun-14 05:31N 35°18' E 139°43'713.9
2017-Jun-14 05:00N 35°25' E 139°45'917.2
2017-Jun-14 04:30N 35°32' E 139°51'713.2
2017-Jun-14 04:00N 35°38' E 139°46'0 0.4
2017-Jun-14 03:30N 35°38' E 139°46'0 0.0
2017-Jun-14 03:00N 35°38' E 139°46'0 0.0
2017-Jun-14 02:30N 35°38' E 139°46'0 0.0
2017-Jun-14 02:00N 35°38' E 139°46'0 0.0
2017-Jun-14 01:30N 35°38' E 139°46'0 0.0
2017-Jun-14 01:00N 35°38' E 139°46'0 0.0
2017-Jun-14 00:30N 35°38' E 139°46'0 0.0
2017-Jun-14 00:00N 35°38' E 139°46'0 0.0
2017-Jun-13 23:27N 35°38' E 139°46'0 0.0
2017-Jun-13 23:00N 35°38' E 139°46'0 0.0
2017-Jun-13 22:30N 35°38' E 139°46'0 0.0
2017-Jun-13 22:00N 35°38' E 139°46'2 4.9
2017-Jun-13 21:30N 35°36' E 139°47'714.5
2017-Jun-13 21:00N 35°30' E 139°52'816.0
2017-Jun-13 20:30N 35°23' E 139°46'510.5
2017-Jun-13 20:00N 35°18' E 139°44'  

Dump ship's entire track history